createdAt,value
2023-02-19T00:00:52.780Z,99.90
2023-02-19T00:01:54.709Z,99.90
2023-02-19T00:03:00.710Z,99.90
2023-02-19T00:04:09.012Z,99.90
2023-02-19T00:05:11.218Z,99.90
2023-02-19T00:06:13.336Z,99.90
2023-02-19T00:07:15.346Z,99.90
2023-02-19T00:08:17.341Z,99.90
2023-02-19T00:09:20.419Z,99.90
2023-02-19T00:10:22.389Z,99.90
2023-02-19T00:11:28.055Z,99.90
2023-02-19T00:12:30.483Z,99.90
2023-02-19T00:13:37.191Z,99.90
2023-02-19T00:15:37.171Z,99.90
2023-02-19T00:16:41.702Z,99.90
2023-02-19T00:17:44.126Z,99.90
2023-02-19T00:18:46.774Z,99.90
2023-02-19T00:19:48.869Z,99.90
2023-02-19T00:20:50.874Z,99.90
2023-02-19T00:21:53.658Z,99.90
2023-02-19T00:22:58.228Z,99.90
2023-02-19T00:24:03.135Z,99.90
2023-02-19T00:25:23.408Z,99.90
2023-02-19T00:26:53.529Z,99.90
2023-02-19T00:27:59.460Z,99.90
2023-02-19T00:30:36.401Z,99.90
2023-02-19T00:31:47.966Z,99.90
2023-02-19T00:33:03.042Z,99.90
2023-02-19T00:34:13.279Z,99.90
2023-02-19T00:35:25.865Z,99.90
2023-02-19T00:36:45.144Z,99.90
2023-02-19T00:39:11.821Z,99.90
2023-02-19T00:42:19.453Z,99.90
2023-02-19T00:43:43.332Z,99.90
2023-02-19T00:46:39.547Z,99.90
2023-02-19T00:47:57.208Z,99.90
2023-02-19T00:49:05.850Z,99.90
2023-02-19T00:50:16.208Z,99.90
2023-02-19T00:51:27.455Z,99.90
2023-02-19T00:52:38.284Z,99.90
2023-02-19T01:10:34.376Z,99.90
2023-02-19T01:12:07.898Z,99.90
2023-02-19T01:14:50.799Z,99.90
2023-02-19T01:16:10.890Z,99.90
2023-02-19T01:17:47.003Z,99.90
2023-02-19T01:19:25.307Z,99.90
2023-02-19T01:21:00.211Z,99.90
2023-02-19T01:22:06.562Z,99.90
2023-02-19T01:23:14.847Z,99.90
2023-02-19T01:24:52.295Z,99.90
2023-02-19T01:26:03.530Z,99.90
2023-02-19T01:27:13.752Z,99.90
2023-02-19T01:29:34.470Z,99.90
2023-02-19T01:31:49.701Z,99.90
2023-02-19T01:33:15.635Z,99.90
2023-02-19T01:35:15.548Z,99.90
2023-02-19T01:36:37.963Z,99.90
2023-02-19T01:38:27.211Z,99.90
2023-02-19T01:40:15.971Z,99.90
2023-02-19T01:42:17.264Z,99.90
2023-02-19T01:46:27.314Z,99.90
2023-02-19T01:48:36.344Z,99.90
2023-02-19T01:50:29.027Z,99.90
2023-02-19T01:53:52.914Z,99.90
2023-02-19T01:57:42.163Z,99.90
2023-02-19T01:59:34.658Z,99.90
2023-02-19T02:04:44.516Z,99.90
2023-02-19T02:07:01.849Z,99.90
2023-02-19T02:20:52.825Z,99.90
2023-02-19T02:22:35.973Z,99.90
2023-02-19T02:27:09.547Z,99.90
2023-02-19T02:32:40.949Z,99.90
2023-02-19T02:43:59.245Z,99.90
2023-02-19T02:47:51.131Z,99.90
2023-02-19T02:50:20.252Z,99.90
2023-02-19T02:54:00.116Z,99.90
2023-02-19T03:18:22.663Z,99.90
2023-02-19T03:19:25.924Z,99.90
2023-02-19T03:22:56.648Z,99.90
2023-02-19T03:24:19.887Z,99.90
2023-02-19T03:25:43.823Z,99.90
2023-02-19T03:26:46.013Z,99.90
2023-02-19T03:27:50.882Z,99.90
2023-02-19T03:29:27.903Z,99.90
2023-02-19T03:30:32.556Z,99.90
2023-02-19T03:31:41.460Z,99.90
2023-02-19T03:33:02.034Z,99.90
2023-02-19T03:34:27.998Z,99.90
2023-02-19T03:38:20.414Z,99.90
2023-02-19T04:02:45.693Z,99.90
2023-02-19T04:04:11.257Z,99.90
2023-02-19T04:05:52.096Z,99.90
2023-02-19T04:08:52.896Z,99.90
2023-02-19T04:10:53.214Z,99.90
2023-02-19T04:34:39.970Z,99.90
2023-02-19T04:35:57.997Z,99.90
2023-02-19T04:50:51.441Z,99.90
2023-02-19T04:52:08.936Z,99.90
2023-02-19T04:53:22.674Z,99.90
2023-02-19T04:54:29.803Z,99.90
2023-02-19T05:45:08.848Z,99.90
2023-02-19T05:46:57.344Z,99.90
2023-02-19T05:51:03.880Z,99.90
2023-02-19T06:00:21.206Z,99.90
2023-02-19T06:14:16.860Z,99.90
2023-02-19T07:17:52.369Z,99.90
2023-02-19T07:19:25.550Z,99.90
2023-02-19T07:20:55.976Z,99.90
2023-02-19T07:22:00.582Z,99.90
2023-02-19T07:23:02.927Z,99.90
2023-02-19T07:24:09.521Z,99.90
2023-02-19T07:32:43.096Z,99.90
2023-02-19T07:33:53.821Z,99.90
2023-02-19T07:34:59.518Z,99.90
2023-02-19T07:37:37.898Z,99.90
2023-02-19T07:38:40.199Z,99.90
2023-02-19T07:39:45.087Z,99.90
2023-02-19T07:40:52.757Z,99.90
2023-02-19T07:41:56.331Z,99.90
2023-02-19T07:42:59.163Z,99.90
2023-02-19T07:44:00.927Z,99.90
2023-02-19T07:45:02.724Z,99.90
2023-02-19T07:46:11.746Z,99.90
2023-02-19T07:47:14.738Z,99.90
2023-02-19T07:48:20.602Z,99.90
2023-02-19T07:49:38.619Z,99.90
2023-02-19T07:50:56.322Z,99.90
2023-02-19T07:52:04.743Z,99.90
2023-02-19T07:53:23.368Z,99.90
2023-02-19T07:54:37.876Z,99.90
2023-02-19T07:55:46.892Z,99.90
2023-02-19T07:56:59.039Z,99.90
2023-02-19T07:58:06.156Z,99.90
2023-02-19T07:59:20.591Z,99.90
2023-02-19T08:00:36.900Z,99.90
2023-02-19T08:01:58.015Z,99.90
2023-02-19T08:03:12.838Z,99.90
2023-02-19T08:04:50.463Z,99.90
2023-02-19T08:06:17.786Z,99.80
2023-02-19T08:09:57.353Z,99.90
2023-02-19T08:11:45.903Z,99.70
2023-02-19T08:13:21.466Z,99.40
2023-02-19T08:14:50.822Z,99.60
2023-02-19T08:16:18.253Z,99.20
2023-02-19T08:17:34.164Z,99.20
2023-02-19T08:18:40.117Z,98.90
2023-02-19T08:21:57.221Z,99.10
2023-02-19T08:23:05.884Z,98.70
2023-02-19T08:24:48.682Z,98.70
2023-02-19T08:26:10.612Z,98.70
2023-02-19T08:27:22.979Z,98.60
2023-02-19T08:30:00.188Z,98.40
2023-02-19T08:31:14.502Z,97.90
2023-02-19T08:32:17.440Z,98.30
2023-02-19T08:33:20.968Z,98.00
2023-02-19T08:34:22.902Z,98.10
2023-02-19T08:35:24.879Z,97.90
2023-02-19T08:36:27.069Z,98.00
2023-02-19T08:37:28.909Z,97.90
2023-02-19T08:38:31.062Z,97.80
2023-02-19T08:39:40.435Z,97.70
2023-02-19T08:40:44.776Z,97.30
2023-02-19T08:41:50.839Z,97.20
2023-02-19T08:42:57.136Z,96.70
2023-02-19T08:44:55.089Z,96.70
2023-02-19T08:46:03.742Z,96.80
2023-02-19T08:47:05.824Z,96.40
2023-02-19T08:48:11.407Z,96.50
2023-02-19T08:49:24.070Z,96.20
2023-02-19T08:51:04.451Z,96.20
2023-02-19T08:52:41.907Z,95.60
2023-02-19T08:55:26.002Z,95.20
2023-02-19T08:56:50.156Z,94.60
2023-02-19T08:57:52.074Z,95.00
2023-02-19T08:58:53.928Z,94.80
2023-02-19T08:59:57.178Z,94.50
2023-02-19T09:01:01.117Z,94.40
2023-02-19T09:02:03.138Z,94.00
2023-02-19T09:03:05.212Z,93.80
2023-02-19T09:04:07.650Z,93.60
2023-02-19T09:05:16.054Z,93.10
2023-02-19T09:06:19.258Z,93.20
2023-02-19T09:07:22.060Z,93.40
2023-02-19T09:08:23.934Z,93.10
2023-02-19T09:09:25.755Z,93.10
2023-02-19T09:10:27.590Z,93.20
2023-02-19T09:11:29.408Z,93.30
2023-02-19T09:12:38.553Z,93.20
2023-02-19T09:13:40.281Z,93.20
2023-02-19T09:14:42.000Z,93.20
2023-02-19T09:15:43.754Z,93.30
2023-02-19T09:16:45.510Z,93.20
2023-02-19T09:17:51.769Z,93.20
2023-02-19T09:18:57.854Z,93.10
2023-02-19T09:25:21.543Z,93.10
2023-02-19T09:28:56.037Z,92.60
2023-02-19T09:30:34.516Z,93.00
2023-02-19T09:33:54.895Z,93.10
2023-02-19T09:34:56.663Z,93.10
2023-02-19T09:36:01.468Z,93.00
2023-02-19T09:37:03.320Z,93.00
2023-02-19T09:38:05.109Z,92.80
2023-02-19T09:39:08.010Z,93.00
2023-02-19T09:40:10.100Z,93.20
2023-02-19T09:41:15.930Z,93.20
2023-02-19T09:42:29.804Z,93.20
2023-02-19T09:43:32.050Z,93.20
2023-02-19T09:44:39.135Z,93.10
2023-02-19T09:45:43.887Z,93.10
2023-02-19T09:46:50.099Z,93.00
2023-02-19T09:47:58.440Z,92.90
2023-02-19T09:49:05.112Z,93.10
2023-02-19T09:50:40.698Z,92.70
2023-02-19T09:51:46.489Z,92.90
2023-02-19T09:53:44.276Z,92.70
2023-02-19T09:54:51.273Z,92.90
2023-02-19T09:56:07.882Z,93.10
2023-02-19T09:57:15.545Z,93.20
2023-02-19T09:58:32.872Z,93.00
2023-02-19T09:59:42.682Z,93.00
2023-02-19T10:01:00.176Z,93.00
2023-02-19T10:02:11.856Z,93.00
2023-02-19T10:03:20.533Z,93.10
2023-02-19T10:04:22.308Z,92.80
2023-02-19T10:05:24.576Z,93.10
2023-02-19T10:06:27.548Z,93.30
2023-02-19T10:07:38.991Z,93.50
2023-02-19T10:08:41.342Z,93.60
2023-02-19T10:09:45.370Z,93.50
2023-02-19T10:10:47.485Z,93.60
2023-02-19T10:11:52.131Z,93.90
2023-02-19T10:12:55.422Z,94.30
2023-02-19T10:13:57.167Z,94.50
2023-02-19T10:15:04.557Z,94.60
2023-02-19T10:16:11.327Z,95.00
2023-02-19T10:17:21.881Z,95.10
2023-02-19T10:18:31.281Z,95.40
2023-02-19T10:19:36.155Z,95.80
2023-02-19T10:20:55.320Z,95.90
2023-02-19T10:22:30.340Z,96.30
2023-02-19T10:23:37.343Z,96.30
2023-02-19T10:24:53.032Z,96.60
2023-02-19T10:26:14.922Z,96.90
2023-02-19T10:27:27.104Z,97.10
2023-02-19T10:30:18.517Z,97.20
2023-02-19T10:31:24.914Z,97.30
2023-02-19T10:32:27.798Z,97.40
2023-02-19T10:33:35.051Z,97.40
2023-02-19T10:34:40.953Z,97.40
2023-02-19T10:35:54.084Z,97.60
2023-02-19T10:36:56.162Z,97.90
2023-02-19T10:37:58.117Z,97.90
2023-02-19T10:41:44.419Z,98.20
2023-02-19T10:42:50.824Z,98.70
2023-02-19T10:44:12.142Z,98.70
2023-02-19T10:45:21.996Z,98.70
2023-02-19T10:46:32.264Z,98.80
2023-02-19T10:47:36.016Z,98.90
2023-02-19T10:48:40.231Z,99.00
2023-02-19T10:49:46.147Z,99.30
2023-02-19T10:50:51.642Z,99.30
2023-02-19T10:51:55.560Z,99.40
2023-02-19T10:53:02.631Z,99.40
2023-02-19T10:54:19.127Z,99.50
2023-02-19T10:55:32.431Z,99.60
2023-02-19T10:56:34.273Z,99.50
2023-02-19T10:57:37.875Z,99.20
2023-02-19T10:58:42.498Z,99.30
2023-02-19T10:59:51.372Z,99.20
2023-02-19T11:01:11.445Z,99.20
2023-02-19T11:02:17.528Z,99.40
2023-02-19T11:03:21.210Z,99.40
2023-02-19T11:04:23.444Z,99.40
2023-02-19T11:05:25.389Z,99.60
2023-02-19T11:06:29.882Z,99.50
2023-02-19T11:07:36.426Z,99.60
2023-02-19T11:08:58.812Z,99.80
2023-02-19T11:10:01.688Z,99.90
2023-02-19T11:11:12.763Z,99.90
2023-02-19T11:12:23.488Z,99.90
2023-02-19T11:13:32.897Z,99.90
2023-02-19T11:14:35.012Z,99.90
2023-02-19T11:15:37.704Z,99.90
2023-02-19T11:16:45.627Z,99.90
2023-02-19T11:18:07.049Z,99.90
2023-02-19T11:19:26.956Z,99.90
2023-02-19T11:20:39.565Z,99.90
2023-02-19T11:21:46.038Z,99.90
2023-02-19T11:22:50.418Z,99.90
2023-02-19T11:23:56.570Z,99.90
2023-02-19T11:25:06.693Z,99.90
2023-02-19T11:26:17.611Z,99.90
2023-02-19T11:27:24.939Z,99.90
2023-02-19T11:29:16.422Z,99.90
2023-02-19T11:30:36.489Z,99.90
2023-02-19T11:31:38.606Z,99.90
2023-02-19T11:32:40.405Z,99.90
2023-02-19T11:33:53.558Z,99.90
2023-02-19T11:35:19.079Z,99.90
2023-02-19T11:36:33.212Z,99.90
2023-02-19T11:38:02.415Z,99.90
2023-02-19T11:39:10.367Z,99.90
2023-02-19T11:40:14.743Z,99.90
2023-02-19T11:41:30.259Z,99.90
2023-02-19T11:44:41.401Z,99.90
2023-02-19T11:45:52.550Z,99.90
2023-02-19T11:47:12.458Z,99.90
2023-02-19T11:48:52.774Z,99.90
2023-02-19T11:50:03.320Z,99.90
2023-02-19T11:51:15.565Z,99.90
2023-02-19T11:52:37.025Z,99.90
2023-02-19T11:53:44.965Z,99.90
2023-02-19T11:54:59.204Z,99.90
2023-02-19T11:56:34.225Z,99.90
2023-02-19T11:57:44.777Z,99.90
2023-02-19T11:58:49.172Z,99.90
2023-02-19T12:00:00.191Z,99.90
2023-02-19T12:01:17.953Z,99.90
2023-02-19T12:02:23.256Z,99.90
2023-02-19T12:03:45.517Z,99.90
2023-02-19T12:05:01.753Z,99.90
2023-02-19T12:06:19.785Z,99.90
2023-02-19T12:07:42.010Z,99.90
2023-02-19T12:08:57.981Z,99.90
2023-02-19T12:10:21.727Z,99.90
2023-02-19T12:11:44.947Z,99.90
2023-02-19T12:13:12.168Z,99.90
2023-02-19T12:14:28.647Z,99.90
2023-02-19T12:15:30.460Z,99.90
2023-02-19T12:16:42.024Z,99.90
2023-02-19T12:18:04.216Z,99.90
2023-02-19T12:19:06.107Z,99.90
2023-02-19T12:20:31.900Z,99.90
2023-02-19T12:21:54.363Z,99.90
2023-02-19T12:23:02.164Z,99.90
2023-02-19T12:24:10.284Z,99.90
2023-02-19T12:25:11.997Z,99.90
2023-02-19T12:26:26.120Z,99.90
2023-02-19T12:27:46.907Z,99.90
2023-02-19T12:29:03.921Z,99.90
2023-02-19T12:30:05.725Z,99.90
2023-02-19T12:31:10.162Z,99.90
2023-02-19T12:32:19.242Z,99.90
2023-02-19T12:33:26.877Z,99.90
2023-02-19T12:34:49.816Z,99.90
2023-02-19T12:36:10.574Z,99.90
2023-02-19T12:37:25.087Z,99.90
2023-02-19T12:38:50.536Z,99.90
2023-02-19T12:40:11.222Z,99.90
2023-02-19T12:41:31.400Z,99.90
2023-02-19T12:42:36.216Z,99.90
2023-02-19T12:43:38.944Z,99.90
2023-02-19T12:44:52.963Z,99.90
2023-02-19T12:45:57.956Z,99.90
2023-02-19T12:47:03.466Z,99.90
2023-02-19T12:48:16.922Z,99.90
2023-02-19T12:49:24.375Z,99.90
2023-02-19T12:50:29.455Z,99.90
2023-02-19T12:51:36.257Z,99.90
2023-02-19T12:52:41.050Z,99.90
2023-02-19T12:53:52.421Z,99.90
2023-02-19T12:54:56.003Z,99.90
2023-02-19T12:55:59.441Z,99.90
2023-02-19T12:57:06.352Z,99.90
2023-02-19T12:58:11.456Z,99.90
2023-02-19T12:59:29.793Z,99.90
2023-02-19T13:00:35.766Z,99.90
2023-02-19T13:01:45.348Z,99.90
2023-02-19T13:02:56.392Z,99.90
2023-02-19T13:04:06.050Z,99.90
2023-02-19T13:05:23.921Z,99.90
2023-02-19T13:06:32.483Z,99.90
2023-02-19T13:07:52.817Z,99.90
2023-02-19T13:09:06.246Z,99.90
2023-02-19T13:10:20.936Z,99.90
2023-02-19T13:11:27.823Z,99.90
2023-02-19T13:12:32.703Z,99.90
2023-02-19T13:13:38.579Z,99.90
2023-02-19T13:14:42.513Z,99.90
2023-02-19T13:15:48.456Z,99.90
2023-02-19T13:16:52.982Z,99.90
2023-02-19T13:17:56.182Z,99.90
2023-02-19T13:19:01.823Z,99.90
2023-02-19T13:20:13.641Z,99.90
2023-02-19T13:21:36.906Z,99.90
2023-02-19T13:23:04.066Z,99.90
2023-02-19T13:24:08.923Z,99.90
2023-02-19T13:25:12.019Z,99.90
2023-02-19T13:26:29.509Z,99.90
2023-02-19T13:27:31.303Z,99.90
2023-02-19T13:28:36.124Z,99.90
2023-02-19T13:30:00.572Z,99.90
2023-02-19T13:31:18.466Z,99.90
2023-02-19T13:32:23.282Z,99.90
2023-02-19T13:33:39.832Z,99.90
2023-02-19T13:34:41.551Z,99.90
2023-02-19T13:35:55.149Z,99.90
2023-02-19T13:36:57.247Z,99.90
2023-02-19T13:38:02.520Z,99.90
2023-02-19T13:39:05.379Z,99.90
2023-02-19T13:40:18.788Z,99.90
2023-02-19T13:41:26.414Z,99.90
2023-02-19T13:42:32.097Z,99.90
2023-02-19T13:43:35.504Z,99.90
2023-02-19T13:44:38.089Z,99.90
2023-02-19T13:45:44.139Z,99.90
2023-02-19T13:46:47.054Z,99.90
2023-02-19T13:47:49.125Z,99.90
2023-02-19T13:49:10.895Z,99.90
2023-02-19T13:50:22.211Z,99.90
2023-02-19T13:51:29.939Z,99.90
2023-02-19T13:52:33.788Z,99.90
2023-02-19T13:53:45.042Z,99.90
2023-02-19T13:54:46.832Z,99.90
2023-02-19T13:55:52.063Z,99.90
2023-02-19T13:57:20.531Z,99.90
2023-02-19T13:58:39.885Z,99.90
2023-02-19T13:59:42.374Z,99.90
2023-02-19T14:00:49.471Z,99.90
2023-02-19T14:01:54.388Z,99.90
2023-02-19T14:03:19.415Z,99.90
2023-02-19T14:04:39.554Z,99.90
2023-02-19T14:06:00.333Z,99.90
2023-02-19T14:07:04.900Z,99.90
2023-02-19T14:08:08.843Z,99.90
2023-02-19T14:09:30.604Z,99.90
2023-02-19T14:10:58.744Z,99.90
2023-02-19T14:12:17.645Z,99.90
2023-02-19T14:13:38.226Z,99.90
2023-02-19T14:14:39.943Z,99.90
2023-02-19T14:15:48.998Z,99.90
2023-02-19T14:16:52.634Z,99.90
2023-02-19T14:17:55.480Z,99.90
2023-02-19T14:18:57.261Z,99.90
2023-02-19T14:20:02.804Z,99.90
2023-02-19T14:21:07.227Z,99.90
2023-02-19T14:22:27.809Z,99.90
2023-02-19T14:23:29.707Z,99.90
2023-02-19T14:24:33.300Z,99.90
2023-02-19T14:25:35.146Z,99.90
2023-02-19T14:26:36.934Z,99.90
2023-02-19T14:27:38.726Z,99.90
2023-02-19T14:28:45.315Z,99.90
2023-02-19T14:29:47.302Z,99.90
2023-02-19T14:30:52.290Z,99.90
2023-02-19T14:31:55.126Z,99.90
2023-02-19T14:33:09.876Z,99.90
2023-02-19T14:34:25.127Z,99.90
2023-02-19T14:35:31.028Z,99.90
2023-02-19T14:36:35.812Z,99.90
2023-02-19T14:37:37.601Z,99.90
2023-02-19T14:38:42.855Z,99.90
2023-02-19T14:39:44.690Z,99.90
2023-02-19T14:40:46.854Z,99.90
2023-02-19T14:41:51.064Z,99.90
2023-02-19T14:42:55.410Z,99.90
2023-02-19T14:44:00.287Z,99.90
2023-02-19T14:45:04.711Z,99.90
2023-02-19T14:46:18.651Z,99.90
2023-02-19T14:47:22.399Z,99.90
2023-02-19T14:48:28.476Z,99.90
2023-02-19T14:49:33.767Z,99.90
2023-02-19T14:50:36.505Z,99.90
2023-02-19T14:51:39.943Z,99.90
2023-02-19T14:52:46.578Z,99.90
2023-02-19T14:53:49.015Z,99.90
2023-02-19T14:54:53.603Z,99.90
2023-02-19T14:55:55.941Z,99.90
2023-02-19T14:56:58.844Z,99.90
2023-02-19T14:58:02.096Z,99.90
2023-02-19T14:59:22.480Z,99.90
2023-02-19T15:00:25.756Z,99.90
2023-02-19T15:01:28.230Z,99.90
2023-02-19T15:02:31.967Z,99.90
2023-02-19T15:03:34.960Z,99.90
2023-02-19T15:04:37.161Z,99.90
2023-02-19T15:05:38.951Z,99.90
2023-02-19T15:06:40.717Z,99.90
2023-02-19T15:07:42.624Z,99.90
2023-02-19T15:08:46.605Z,99.90
2023-02-19T15:09:49.428Z,99.90
2023-02-19T15:10:51.171Z,99.90
2023-02-19T15:11:56.191Z,99.90
2023-02-19T15:13:00.190Z,99.90
2023-02-19T15:14:03.964Z,99.90
2023-02-19T15:15:06.397Z,99.90
2023-02-19T15:16:08.235Z,99.90
2023-02-19T15:17:13.418Z,99.90
2023-02-19T15:18:18.036Z,99.90
2023-02-19T15:19:19.885Z,99.90
2023-02-19T15:20:26.301Z,99.90
2023-02-19T15:21:29.592Z,99.90
2023-02-19T15:22:32.656Z,99.90
2023-02-19T15:23:35.901Z,99.90
2023-02-19T15:24:43.336Z,99.90
2023-02-19T15:25:45.071Z,99.90
2023-02-19T15:26:51.954Z,99.90
2023-02-19T15:27:53.716Z,99.90
2023-02-19T15:28:59.581Z,99.90
2023-02-19T15:30:01.517Z,99.90
2023-02-19T15:31:06.445Z,99.90
2023-02-19T15:32:15.915Z,99.90
2023-02-19T15:33:18.647Z,99.90
2023-02-19T15:34:28.029Z,99.90
2023-02-19T15:35:30.487Z,99.90
2023-02-19T15:36:34.023Z,99.90
2023-02-19T15:37:36.068Z,99.90
2023-02-19T15:38:37.978Z,99.90
2023-02-19T15:39:41.462Z,99.90
2023-02-19T15:40:46.970Z,99.90
2023-02-19T15:42:00.274Z,99.90
2023-02-19T15:43:02.448Z,99.90
2023-02-19T15:44:10.018Z,99.90
2023-02-19T15:45:22.275Z,99.90
2023-02-19T15:46:25.920Z,99.90
2023-02-19T15:47:33.707Z,99.90
2023-02-19T15:48:49.168Z,99.90
2023-02-19T15:49:54.466Z,99.90
2023-02-19T15:51:08.063Z,99.90
2023-02-19T15:52:12.415Z,99.90
2023-02-19T15:53:23.356Z,99.90
2023-02-19T15:54:27.616Z,99.90
2023-02-19T15:55:32.585Z,99.90
2023-02-19T15:56:35.906Z,99.90
2023-02-19T15:57:41.023Z,99.90
2023-02-19T15:58:48.723Z,99.90
2023-02-19T15:59:54.370Z,99.90
2023-02-19T16:00:58.176Z,99.90
2023-02-19T16:02:00.767Z,99.90
2023-02-19T16:03:03.148Z,99.90
2023-02-19T16:04:10.764Z,99.90
2023-02-19T16:05:13.649Z,99.90
2023-02-19T16:06:16.670Z,99.90
2023-02-19T16:07:25.589Z,99.90
2023-02-19T16:08:36.922Z,99.90
2023-02-19T16:09:40.102Z,99.90
2023-02-19T16:10:51.913Z,99.90
2023-02-19T16:11:55.325Z,99.90
2023-02-19T16:12:58.119Z,99.90
2023-02-19T16:14:18.998Z,99.90
2023-02-19T16:15:20.765Z,99.90
2023-02-19T16:16:22.542Z,99.90
2023-02-19T16:17:28.095Z,99.90
2023-02-19T16:18:30.213Z,99.90
2023-02-19T16:19:41.368Z,99.90
2023-02-19T16:20:46.908Z,99.90
2023-02-19T16:21:49.870Z,99.90
2023-02-19T16:22:52.414Z,99.90
2023-02-19T16:24:01.541Z,99.90
2023-02-19T16:25:05.759Z,99.90
2023-02-19T16:26:07.557Z,99.90
2023-02-19T16:27:09.378Z,99.90
2023-02-19T16:28:18.624Z,99.90
2023-02-19T16:29:31.424Z,99.90
2023-02-19T16:30:34.213Z,99.90
2023-02-19T16:31:36.140Z,99.90
2023-02-19T16:32:37.905Z,99.90
2023-02-19T16:33:41.114Z,99.90
2023-02-19T16:34:52.140Z,99.90
2023-02-19T16:35:53.863Z,99.90
2023-02-19T16:36:55.620Z,99.90
2023-02-19T16:37:58.715Z,99.90
2023-02-19T16:39:00.523Z,99.90
2023-02-19T16:40:07.822Z,99.90
2023-02-19T16:41:12.926Z,99.90
2023-02-19T16:42:15.067Z,99.90
2023-02-19T16:43:35.696Z,99.90
2023-02-19T16:44:37.612Z,99.90
2023-02-19T16:45:42.929Z,99.90
2023-02-19T16:46:44.868Z,99.90
2023-02-19T16:47:51.203Z,99.90
2023-02-19T16:48:54.182Z,99.90
2023-02-19T16:49:57.217Z,99.90
2023-02-19T16:50:59.835Z,99.90
2023-02-19T16:52:04.204Z,99.90
2023-02-19T16:53:06.160Z,99.90
2023-02-19T16:54:09.288Z,99.90
2023-02-19T16:55:12.895Z,99.90
2023-02-19T16:56:15.994Z,99.90
2023-02-19T16:57:18.024Z,99.90
2023-02-19T16:58:19.934Z,99.90
2023-02-19T16:59:21.694Z,99.90
2023-02-19T17:00:30.518Z,99.90
2023-02-19T17:01:32.374Z,99.90
2023-02-19T17:02:34.256Z,99.90
2023-02-19T17:03:38.120Z,99.90
2023-02-19T17:04:39.888Z,99.90
2023-02-19T17:05:41.916Z,99.90
2023-02-19T17:06:44.467Z,99.90
2023-02-19T17:07:46.279Z,99.90
2023-02-19T17:08:48.036Z,99.90
2023-02-19T17:09:49.808Z,99.90
2023-02-19T17:10:51.678Z,99.90
2023-02-19T17:11:53.431Z,99.90
2023-02-19T17:12:55.637Z,99.90
2023-02-19T17:13:57.770Z,99.90
2023-02-19T17:14:59.673Z,99.90
2023-02-19T17:16:01.616Z,99.90
2023-02-19T17:17:03.806Z,99.90
2023-02-19T17:18:05.612Z,99.90
2023-02-19T17:19:12.898Z,99.90
2023-02-19T17:20:17.415Z,99.90
2023-02-19T17:21:26.258Z,99.90
2023-02-19T17:22:28.021Z,99.90
2023-02-19T17:23:29.752Z,99.90
2023-02-19T17:24:31.949Z,99.90
2023-02-19T17:25:33.670Z,99.90
2023-02-19T17:26:35.427Z,99.90
2023-02-19T17:27:37.218Z,99.90
2023-02-19T17:28:41.337Z,99.90
2023-02-19T17:29:43.377Z,99.90
2023-02-19T17:30:45.132Z,99.90
2023-02-19T17:31:47.297Z,99.90
2023-02-19T17:32:49.194Z,99.90
2023-02-19T17:33:51.844Z,99.90
2023-02-19T17:34:53.678Z,99.90
2023-02-19T17:35:55.421Z,99.90
2023-02-19T17:36:57.348Z,99.90
2023-02-19T17:37:59.130Z,99.90
2023-02-19T17:39:04.241Z,99.90
2023-02-19T17:40:31.745Z,99.90
2023-02-19T17:41:34.311Z,99.90
2023-02-19T17:42:36.076Z,99.90
2023-02-19T17:43:37.816Z,99.90
2023-02-19T17:44:39.632Z,99.90
2023-02-19T17:45:41.558Z,99.90
2023-02-19T17:46:46.683Z,99.90
2023-02-19T17:47:48.433Z,99.90
2023-02-19T17:48:50.526Z,99.90
2023-02-19T17:49:52.282Z,99.90
2023-02-19T17:50:54.103Z,99.90
2023-02-19T17:51:55.862Z,99.90
2023-02-19T17:52:57.862Z,99.90
2023-02-19T17:53:59.709Z,99.90
2023-02-19T17:55:01.465Z,99.90
2023-02-19T17:56:03.301Z,99.90
2023-02-19T17:57:05.034Z,99.90
2023-02-19T17:58:06.802Z,99.90
2023-02-19T17:59:09.072Z,99.90
2023-02-19T18:00:11.683Z,99.90
2023-02-19T18:01:14.336Z,99.90
2023-02-19T18:02:16.307Z,99.90
2023-02-19T18:03:18.068Z,99.90
2023-02-19T18:04:19.885Z,99.90
2023-02-19T18:05:22.173Z,99.90
2023-02-19T18:06:23.903Z,99.90
2023-02-19T18:07:25.680Z,99.90
2023-02-19T18:08:27.448Z,99.90
2023-02-19T18:09:29.178Z,99.90
2023-02-19T18:10:30.925Z,99.90
2023-02-19T18:11:32.672Z,99.90
2023-02-19T18:12:34.467Z,99.90
2023-02-19T18:13:36.221Z,99.90
2023-02-19T18:14:37.967Z,99.90
2023-02-19T18:15:39.753Z,99.90
2023-02-19T18:16:50.015Z,99.90
2023-02-19T18:17:52.571Z,99.90
2023-02-19T18:18:55.370Z,99.90
2023-02-19T18:19:57.137Z,99.90
2023-02-19T18:20:58.870Z,99.90
2023-02-19T18:22:00.654Z,99.90
2023-02-19T18:23:02.515Z,99.90
2023-02-19T18:24:04.420Z,99.90
2023-02-19T18:25:06.365Z,99.90
2023-02-19T18:26:10.368Z,99.90
2023-02-19T18:27:12.128Z,99.90
2023-02-19T18:28:15.026Z,99.90
2023-02-19T18:29:18.590Z,99.90
2023-02-19T18:30:22.640Z,99.90
2023-02-19T18:31:24.572Z,99.90
2023-02-19T18:32:26.477Z,99.90
2023-02-19T18:33:28.233Z,99.90
2023-02-19T18:34:29.998Z,99.90
2023-02-19T18:35:33.176Z,99.90
2023-02-19T18:36:36.408Z,99.90
2023-02-19T18:37:38.304Z,99.90
2023-02-19T18:38:40.146Z,99.90
2023-02-19T18:39:43.906Z,99.90
2023-02-19T18:40:46.601Z,99.90
2023-02-19T18:41:49.531Z,99.90
2023-02-19T18:42:51.342Z,99.90
2023-02-19T18:43:53.063Z,99.90
2023-02-19T18:44:55.175Z,99.90
2023-02-19T18:45:56.980Z,99.90
2023-02-19T18:46:58.736Z,99.90
2023-02-19T18:48:00.564Z,99.90
2023-02-19T18:49:03.626Z,99.90
2023-02-19T18:50:08.635Z,99.90
2023-02-19T18:51:11.155Z,99.90
2023-02-19T18:52:13.423Z,99.90
2023-02-19T18:53:15.219Z,99.90
2023-02-19T18:54:16.956Z,99.90
2023-02-19T18:55:19.119Z,99.90
2023-02-19T18:56:20.975Z,99.90
2023-02-19T18:57:23.868Z,99.90
2023-02-19T18:58:25.924Z,99.90
2023-02-19T18:59:27.753Z,99.90
2023-02-19T19:00:29.602Z,99.90
2023-02-19T19:01:31.335Z,99.90
2023-02-19T19:02:47.080Z,99.90
2023-02-19T19:03:50.647Z,99.90
2023-02-19T19:04:53.086Z,99.90
2023-02-19T19:05:55.252Z,99.90
2023-02-19T19:06:56.972Z,99.90
2023-02-19T19:08:01.968Z,99.90
2023-02-19T19:09:04.353Z,99.90
2023-02-19T19:10:06.473Z,99.90
2023-02-19T19:11:09.076Z,99.90
2023-02-19T19:12:12.161Z,99.90
2023-02-19T19:13:13.896Z,99.90
2023-02-19T19:14:15.829Z,99.90
2023-02-19T19:15:18.608Z,99.90
2023-02-19T19:16:29.446Z,99.90
2023-02-19T19:17:31.273Z,99.90
2023-02-19T19:18:38.014Z,99.90
2023-02-19T19:19:41.209Z,99.90
2023-02-19T19:20:42.921Z,99.90
2023-02-19T19:21:44.696Z,99.90
2023-02-19T19:22:48.506Z,99.90
2023-02-19T19:23:50.261Z,99.90
2023-02-19T19:24:52.049Z,99.90
2023-02-19T19:25:54.788Z,99.90
2023-02-19T19:26:56.494Z,99.90
2023-02-19T19:27:58.678Z,99.90
2023-02-19T19:29:00.439Z,99.90
2023-02-19T19:30:03.415Z,99.90
2023-02-19T19:31:05.685Z,99.90
2023-02-19T19:32:08.730Z,99.90
2023-02-19T19:33:12.112Z,99.90
2023-02-19T19:34:16.083Z,99.90
2023-02-19T19:35:18.432Z,99.90
2023-02-19T19:36:21.430Z,99.90
2023-02-19T19:37:23.230Z,99.90
2023-02-19T19:38:25.020Z,99.90
2023-02-19T19:39:26.798Z,99.90
2023-02-19T19:40:28.568Z,99.90
2023-02-19T19:41:30.327Z,99.90
2023-02-19T19:42:32.117Z,99.90
2023-02-19T19:43:33.962Z,99.90
2023-02-19T19:44:35.697Z,99.90
2023-02-19T19:45:37.539Z,99.90
2023-02-19T19:46:48.148Z,99.90
2023-02-19T19:47:49.932Z,99.90
2023-02-19T19:48:52.899Z,99.90
2023-02-19T19:49:54.604Z,99.90
2023-02-19T19:50:57.151Z,99.90
2023-02-19T19:52:01.264Z,99.90
2023-02-19T19:53:03.146Z,99.90
2023-02-19T19:54:05.115Z,99.90
2023-02-19T19:55:07.441Z,99.90
2023-02-19T19:56:09.268Z,99.90
2023-02-19T19:57:17.658Z,99.90
2023-02-19T19:58:26.215Z,99.90
2023-02-19T19:59:28.023Z,99.90
2023-02-19T20:00:29.849Z,99.90
2023-02-19T20:01:31.606Z,99.90
2023-02-19T20:02:33.437Z,99.90
2023-02-19T20:03:35.246Z,99.90
2023-02-19T20:04:37.098Z,99.90
2023-02-19T20:05:38.843Z,99.90
2023-02-19T20:06:40.655Z,99.90
2023-02-19T20:07:42.481Z,99.90
2023-02-19T20:08:44.242Z,99.90
2023-02-19T20:09:49.664Z,99.90
2023-02-19T20:10:51.606Z,99.90
2023-02-19T20:11:54.514Z,99.90
2023-02-19T20:12:56.523Z,99.90
2023-02-19T20:13:58.271Z,99.90
2023-02-19T20:15:00.023Z,99.90
2023-02-19T20:16:01.896Z,99.90
2023-02-19T20:17:03.975Z,99.90
2023-02-19T20:18:05.884Z,99.90
2023-02-19T20:19:07.928Z,99.90